sensor_id;sensor_type;location;lat;lon;timestamp;P1;durP1;ratioP1;P2;durP2;ratioP2
68284;SDS011;55114;52.052;5.238;2022-10-31T00:00:33;19.75;;;7.90;;
68284;SDS011;55114;52.052;5.238;2022-10-31T00:03:01;20.33;;;7.70;;
68284;SDS011;55114;52.052;5.238;2022-10-31T00:05:28;16.88;;;7.22;;
68284;SDS011;55114;52.052;5.238;2022-10-31T00:07:55;14.73;;;7.10;;
68284;SDS011;55114;52.052;5.238;2022-10-31T00:10:22;16.08;;;7.43;;
68284;SDS011;55114;52.052;5.238;2022-10-31T00:12:50;17.70;;;7.50;;
68284;SDS011;55114;52.052;5.238;2022-10-31T00:15:18;14.10;;;7.60;;
68284;SDS011;55114;52.052;5.238;2022-10-31T00:17:45;14.88;;;7.13;;
68284;SDS011;55114;52.052;5.238;2022-10-31T00:20:12;17.25;;;6.97;;
68284;SDS011;55114;52.052;5.238;2022-10-31T00:22:39;17.75;;;7.47;;
68284;SDS011;55114;52.052;5.238;2022-10-31T00:25:06;27.20;;;7.60;;
68284;SDS011;55114;52.052;5.238;2022-10-31T00:27:34;21.23;;;7.80;;
68284;SDS011;55114;52.052;5.238;2022-10-31T00:30:01;14.15;;;6.88;;
68284;SDS011;55114;52.052;5.238;2022-10-31T00:32:28;15.82;;;7.05;;
68284;SDS011;55114;52.052;5.238;2022-10-31T00:34:56;16.00;;;7.10;;
68284;SDS011;55114;52.052;5.238;2022-10-31T00:37:23;16.95;;;7.00;;
68284;SDS011;55114;52.052;5.238;2022-10-31T00:39:50;15.57;;;6.87;;
68284;SDS011;55114;52.052;5.238;2022-10-31T00:42:17;11.88;;;6.70;;
68284;SDS011;55114;52.052;5.238;2022-10-31T00:44:44;14.02;;;7.40;;
68284;SDS011;55114;52.052;5.238;2022-10-31T00:47:11;15.95;;;7.72;;
68284;SDS011;55114;52.052;5.238;2022-10-31T00:49:39;15.40;;;7.30;;
68284;SDS011;55114;52.052;5.238;2022-10-31T00:52:06;15.83;;;7.83;;
68284;SDS011;55114;52.052;5.238;2022-10-31T00:54:33;15.43;;;7.32;;
68284;SDS011;55114;52.052;5.238;2022-10-31T00:57:00;13.77;;;7.13;;
68284;SDS011;55114;52.052;5.238;2022-10-31T00:59:27;14.35;;;7.25;;
68284;SDS011;55114;52.052;5.238;2022-10-31T01:01:54;15.63;;;7.43;;
68284;SDS011;55114;52.052;5.238;2022-10-31T01:04:22;17.30;;;7.13;;
68284;SDS011;55114;52.052;5.238;2022-10-31T01:06:49;14.40;;;7.05;;
68284;SDS011;55114;52.052;5.238;2022-10-31T01:09:16;16.25;;;6.82;;
68284;SDS011;55114;52.052;5.238;2022-10-31T01:11:43;17.15;;;7.40;;
68284;SDS011;55114;52.052;5.238;2022-10-31T01:14:10;16.25;;;7.40;;
68284;SDS011;55114;52.052;5.238;2022-10-31T01:16:37;15.77;;;7.20;;
68284;SDS011;55114;52.052;5.238;2022-10-31T01:19:04;15.20;;;7.18;;
68284;SDS011;55114;52.052;5.238;2022-10-31T01:21:31;16.42;;;7.07;;
68284;SDS011;55114;52.052;5.238;2022-10-31T01:23:59;15.88;;;7.28;;
68284;SDS011;55114;52.052;5.238;2022-10-31T01:26:29;13.30;;;7.13;;
68284;SDS011;55114;52.052;5.238;2022-10-31T01:28:57;19.03;;;7.93;;
68284;SDS011;55114;52.052;5.238;2022-10-31T01:31:26;15.15;;;7.15;;
68284;SDS011;55114;52.052;5.238;2022-10-31T01:33:54;13.63;;;6.68;;
68284;SDS011;55114;52.052;5.238;2022-10-31T01:38:48;15.38;;;6.50;;
68284;SDS011;55114;52.052;5.238;2022-10-31T01:41:17;13.37;;;6.53;;
68284;SDS011;55114;52.052;5.238;2022-10-31T01:43:46;13.63;;;6.15;;
68284;SDS011;55114;52.052;5.238;2022-10-31T01:46:15;15.95;;;6.40;;
68284;SDS011;55114;52.052;5.238;2022-10-31T01:48:43;13.40;;;5.82;;
68284;SDS011;55114;52.052;5.238;2022-10-31T01:51:10;10.98;;;6.15;;
68284;SDS011;55114;52.052;5.238;2022-10-31T01:53:39;10.33;;;5.20;;
68284;SDS011;55114;52.052;5.238;2022-10-31T01:56:07;11.60;;;5.78;;
68284;SDS011;55114;52.052;5.238;2022-10-31T01:58:35;11.05;;;5.43;;
68284;SDS011;55114;52.052;5.238;2022-10-31T02:01:02;9.48;;;5.40;;
68284;SDS011;55114;52.052;5.238;2022-10-31T02:03:33;12.27;;;5.70;;
68284;SDS011;55114;52.052;5.238;2022-10-31T02:06:00;13.70;;;5.93;;
68284;SDS011;55114;52.052;5.238;2022-10-31T02:08:28;13.98;;;6.40;;
68284;SDS011;55114;52.052;5.238;2022-10-31T02:10:56;11.32;;;6.47;;
68284;SDS011;55114;52.052;5.238;2022-10-31T02:13:23;11.10;;;6.07;;
68284;SDS011;55114;52.052;5.238;2022-10-31T02:15:52;13.50;;;6.07;;
68284;SDS011;55114;52.052;5.238;2022-10-31T02:18:20;14.27;;;5.63;;
68284;SDS011;55114;52.052;5.238;2022-10-31T02:20:56;11.90;;;5.60;;
68284;SDS011;55114;52.052;5.238;2022-10-31T02:29:16;12.20;;;6.15;;
68284;SDS011;55114;52.052;5.238;2022-10-31T02:31:50;12.33;;;6.20;;
68284;SDS011;55114;52.052;5.238;2022-10-31T02:34:24;12.30;;;6.03;;
68284;SDS011;55114;52.052;5.238;2022-10-31T02:39:26;12.95;;;6.47;;
68284;SDS011;55114;52.052;5.238;2022-10-31T02:47:11;11.25;;;6.30;;
68284;SDS011;55114;52.052;5.238;2022-10-31T02:49:42;11.88;;;6.25;;
68284;SDS011;55114;52.052;5.238;2022-10-31T02:52:13;13.50;;;6.70;;
68284;SDS011;55114;52.052;5.238;2022-10-31T02:54:40;15.95;;;7.45;;
68284;SDS011;55114;52.052;5.238;2022-10-31T02:57:08;17.57;;;7.33;;
68284;SDS011;55114;52.052;5.238;2022-10-31T02:59:36;13.70;;;6.82;;
68284;SDS011;55114;52.052;5.238;2022-10-31T03:02:21;15.70;;;7.10;;
68284;SDS011;55114;52.052;5.238;2022-10-31T03:04:56;17.10;;;7.25;;
68284;SDS011;55114;52.052;5.238;2022-10-31T03:15:14;14.57;;;7.32;;
68284;SDS011;55114;52.052;5.238;2022-10-31T03:17:47;14.63;;;7.05;;
68284;SDS011;55114;52.052;5.238;2022-10-31T03:20:17;11.55;;;6.70;;
68284;SDS011;55114;52.052;5.238;2022-10-31T03:22:48;14.73;;;7.43;;
68284;SDS011;55114;52.052;5.238;2022-10-31T03:25:15;12.48;;;7.00;;
68284;SDS011;55114;52.052;5.238;2022-10-31T03:27:43;14.57;;;7.28;;
68284;SDS011;55114;52.052;5.238;2022-10-31T03:30:11;14.38;;;6.80;;
68284;SDS011;55114;52.052;5.238;2022-10-31T03:32:39;15.38;;;6.97;;
68284;SDS011;55114;52.052;5.238;2022-10-31T03:35:08;14.27;;;7.00;;
68284;SDS011;55114;52.052;5.238;2022-10-31T03:37:36;18.00;;;7.00;;
68284;SDS011;55114;52.052;5.238;2022-10-31T03:40:04;11.48;;;6.90;;
68284;SDS011;55114;52.052;5.238;2022-10-31T03:42:34;14.20;;;6.57;;
68284;SDS011;55114;52.052;5.238;2022-10-31T03:45:05;13.38;;;7.00;;
68284;SDS011;55114;52.052;5.238;2022-10-31T03:47:34;17.93;;;7.97;;
68284;SDS011;55114;52.052;5.238;2022-10-31T03:50:02;17.73;;;8.18;;
68284;SDS011;55114;52.052;5.238;2022-10-31T03:52:49;16.20;;;8.50;;
68284;SDS011;55114;52.052;5.238;2022-10-31T03:55:18;18.33;;;8.40;;
68284;SDS011;55114;52.052;5.238;2022-10-31T03:57:54;15.95;;;8.23;;
68284;SDS011;55114;52.052;5.238;2022-10-31T04:00:24;17.00;;;8.33;;
68284;SDS011;55114;52.052;5.238;2022-10-31T04:03:09;16.40;;;8.55;;
68284;SDS011;55114;52.052;5.238;2022-10-31T04:05:37;15.15;;;8.35;;
68284;SDS011;55114;52.052;5.238;2022-10-31T04:08:07;16.63;;;7.85;;
68284;SDS011;55114;52.052;5.238;2022-10-31T04:10:35;17.20;;;7.65;;
68284;SDS011;55114;52.052;5.238;2022-10-31T04:13:04;15.40;;;7.50;;
68284;SDS011;55114;52.052;5.238;2022-10-31T04:15:33;14.68;;;7.55;;
68284;SDS011;55114;52.052;5.238;2022-10-31T04:18:01;19.15;;;8.27;;
68284;SDS011;55114;52.052;5.238;2022-10-31T04:20:34;16.98;;;7.60;;
68284;SDS011;55114;52.052;5.238;2022-10-31T04:23:02;14.10;;;7.50;;
68284;SDS011;55114;52.052;5.238;2022-10-31T04:25:29;15.37;;;7.70;;
68284;SDS011;55114;52.052;5.238;2022-10-31T04:27:56;19.33;;;7.65;;
68284;SDS011;55114;52.052;5.238;2022-10-31T04:30:24;17.13;;;7.40;;
68284;SDS011;55114;52.052;5.238;2022-10-31T04:32:51;16.90;;;7.97;;
68284;SDS011;55114;52.052;5.238;2022-10-31T04:35:18;14.70;;;8.10;;
68284;SDS011;55114;52.052;5.238;2022-10-31T04:37:45;13.93;;;7.63;;
68284;SDS011;55114;52.052;5.238;2022-10-31T04:40:12;19.95;;;7.50;;
68284;SDS011;55114;52.052;5.238;2022-10-31T04:42:39;14.85;;;7.65;;
68284;SDS011;55114;52.052;5.238;2022-10-31T04:45:06;17.40;;;8.30;;
68284;SDS011;55114;52.052;5.238;2022-10-31T04:47:34;16.58;;;8.52;;
68284;SDS011;55114;52.052;5.238;2022-10-31T04:50:01;18.53;;;9.33;;
68284;SDS011;55114;52.052;5.238;2022-10-31T04:52:28;18.48;;;9.20;;
68284;SDS011;55114;52.052;5.238;2022-10-31T04:54:55;22.35;;;10.35;;
68284;SDS011;55114;52.052;5.238;2022-10-31T04:57:22;21.60;;;10.10;;
68284;SDS011;55114;52.052;5.238;2022-10-31T04:59:49;20.10;;;10.00;;
68284;SDS011;55114;52.052;5.238;2022-10-31T05:02:16;23.13;;;10.03;;
68284;SDS011;55114;52.052;5.238;2022-10-31T05:04:44;24.02;;;10.80;;
68284;SDS011;55114;52.052;5.238;2022-10-31T05:07:11;24.30;;;10.48;;
68284;SDS011;55114;52.052;5.238;2022-10-31T05:09:38;23.00;;;10.43;;
68284;SDS011;55114;52.052;5.238;2022-10-31T05:12:05;22.42;;;10.45;;
68284;SDS011;55114;52.052;5.238;2022-10-31T05:14:32;24.03;;;10.77;;
68284;SDS011;55114;52.052;5.238;2022-10-31T05:16:59;21.88;;;11.05;;
68284;SDS011;55114;52.052;5.238;2022-10-31T05:19:26;44.53;;;12.10;;
68284;SDS011;55114;52.052;5.238;2022-10-31T05:21:53;30.67;;;11.13;;
68284;SDS011;55114;52.052;5.238;2022-10-31T05:24:20;56.65;;;12.02;;
68284;SDS011;55114;52.052;5.238;2022-10-31T05:26:48;67.93;;;13.10;;
68284;SDS011;55114;52.052;5.238;2022-10-31T05:29:15;81.47;;;12.52;;
68284;SDS011;55114;52.052;5.238;2022-10-31T05:31:42;83.97;;;12.57;;
68284;SDS011;55114;52.052;5.238;2022-10-31T05:34:09;80.10;;;12.27;;
68284;SDS011;55114;52.052;5.238;2022-10-31T05:36:36;69.28;;;11.43;;
68284;SDS011;55114;52.052;5.238;2022-10-31T05:39:03;61.50;;;11.23;;
68284;SDS011;55114;52.052;5.238;2022-10-31T05:41:30;47.25;;;10.82;;
68284;SDS011;55114;52.052;5.238;2022-10-31T05:43:57;64.97;;;11.02;;
68284;SDS011;55114;52.052;5.238;2022-10-31T05:46:25;64.05;;;13.32;;
68284;SDS011;55114;52.052;5.238;2022-10-31T05:48:52;52.10;;;10.77;;
68284;SDS011;55114;52.052;5.238;2022-10-31T05:51:22;51.67;;;11.00;;
68284;SDS011;55114;52.052;5.238;2022-10-31T05:53:49;58.67;;;10.95;;
68284;SDS011;55114;52.052;5.238;2022-10-31T05:56:16;47.67;;;11.10;;
68284;SDS011;55114;52.052;5.238;2022-10-31T05:58:43;48.08;;;11.43;;
68284;SDS011;55114;52.052;5.238;2022-10-31T06:01:10;43.47;;;11.15;;
68284;SDS011;55114;52.052;5.238;2022-10-31T06:03:38;45.37;;;11.30;;
68284;SDS011;55114;52.052;5.238;2022-10-31T06:06:05;49.85;;;12.73;;
68284;SDS011;55114;52.052;5.238;2022-10-31T06:08:32;48.97;;;11.43;;
68284;SDS011;55114;52.052;5.238;2022-10-31T06:10:59;46.60;;;11.82;;
68284;SDS011;55114;52.052;5.238;2022-10-31T06:13:26;66.43;;;13.40;;
68284;SDS011;55114;52.052;5.238;2022-10-31T06:15:53;36.60;;;11.90;;
68284;SDS011;55114;52.052;5.238;2022-10-31T06:18:20;31.85;;;11.70;;
68284;SDS011;55114;52.052;5.238;2022-10-31T06:20:47;40.00;;;12.07;;
68284;SDS011;55114;52.052;5.238;2022-10-31T06:23:14;35.85;;;12.32;;
68284;SDS011;55114;52.052;5.238;2022-10-31T06:25:41;40.05;;;12.77;;
68284;SDS011;55114;52.052;5.238;2022-10-31T06:28:09;46.20;;;13.23;;
68284;SDS011;55114;52.052;5.238;2022-10-31T06:30:36;53.17;;;14.20;;
68284;SDS011;55114;52.052;5.238;2022-10-31T06:33:03;40.42;;;12.70;;
68284;SDS011;55114;52.052;5.238;2022-10-31T06:35:30;35.38;;;12.75;;
68284;SDS011;55114;52.052;5.238;2022-10-31T06:37:58;32.65;;;13.75;;
68284;SDS011;55114;52.052;5.238;2022-10-31T06:40:25;30.83;;;12.90;;
68284;SDS011;55114;52.052;5.238;2022-10-31T06:42:56;39.63;;;14.13;;
68284;SDS011;55114;52.052;5.238;2022-10-31T06:45:23;55.45;;;14.60;;
68284;SDS011;55114;52.052;5.238;2022-10-31T06:47:54;48.75;;;13.68;;
68284;SDS011;55114;52.052;5.238;2022-10-31T06:50:41;40.05;;;13.25;;
68284;SDS011;55114;52.052;5.238;2022-10-31T06:53:08;42.63;;;13.07;;
68284;SDS011;55114;52.052;5.238;2022-10-31T06:55:35;46.05;;;13.85;;
68284;SDS011;55114;52.052;5.238;2022-10-31T06:58:02;33.47;;;13.60;;
68284;SDS011;55114;52.052;5.238;2022-10-31T07:00:30;46.83;;;14.00;;
68284;SDS011;55114;52.052;5.238;2022-10-31T07:02:58;62.10;;;14.15;;
68284;SDS011;55114;52.052;5.238;2022-10-31T07:05:26;66.40;;;15.37;;
68284;SDS011;55114;52.052;5.238;2022-10-31T07:07:54;46.65;;;14.35;;
68284;SDS011;55114;52.052;5.238;2022-10-31T07:10:22;34.65;;;14.10;;
68284;SDS011;55114;52.052;5.238;2022-10-31T07:13:04;44.03;;;14.00;;
68284;SDS011;55114;52.052;5.238;2022-10-31T07:15:35;55.85;;;14.65;;
68284;SDS011;55114;52.052;5.238;2022-10-31T07:18:03;56.43;;;15.10;;
68284;SDS011;55114;52.052;5.238;2022-10-31T07:20:31;62.70;;;14.80;;
68284;SDS011;55114;52.052;5.238;2022-10-31T07:22:58;65.10;;;13.77;;
68284;SDS011;55114;52.052;5.238;2022-10-31T07:25:27;32.45;;;13.48;;
68284;SDS011;55114;52.052;5.238;2022-10-31T07:27:57;41.00;;;14.90;;
68284;SDS011;55114;52.052;5.238;2022-10-31T07:30:25;36.27;;;13.73;;
68284;SDS011;55114;52.052;5.238;2022-10-31T07:32:52;57.35;;;15.55;;
68284;SDS011;55114;52.052;5.238;2022-10-31T07:35:20;57.75;;;15.38;;
68284;SDS011;55114;52.052;5.238;2022-10-31T07:37:48;107.75;;;15.98;;
68284;SDS011;55114;52.052;5.238;2022-10-31T07:40:15;72.20;;;14.52;;
68284;SDS011;55114;52.052;5.238;2022-10-31T07:42:47;67.90;;;15.27;;
68284;SDS011;55114;52.052;5.238;2022-10-31T07:45:15;95.78;;;16.73;;
68284;SDS011;55114;52.052;5.238;2022-10-31T07:47:46;89.68;;;14.77;;
68284;SDS011;55114;52.052;5.238;2022-10-31T07:50:15;59.28;;;14.20;;
68284;SDS011;55114;52.052;5.238;2022-10-31T07:52:42;82.40;;;16.33;;
68284;SDS011;55114;52.052;5.238;2022-10-31T07:55:10;80.60;;;16.33;;
68284;SDS011;55114;52.052;5.238;2022-10-31T07:57:37;86.78;;;15.77;;
68284;SDS011;55114;52.052;5.238;2022-10-31T08:00:05;113.45;;;16.25;;
68284;SDS011;55114;52.052;5.238;2022-10-31T08:02:32;113.95;;;17.42;;
68284;SDS011;55114;52.052;5.238;2022-10-31T08:05:00;78.25;;;16.55;;
68284;SDS011;55114;52.052;5.238;2022-10-31T08:07:28;92.30;;;17.10;;
68284;SDS011;55114;52.052;5.238;2022-10-31T08:09:55;69.40;;;16.23;;
68284;SDS011;55114;52.052;5.238;2022-10-31T08:12:22;64.22;;;16.02;;
68284;SDS011;55114;52.052;5.238;2022-10-31T08:14:50;60.92;;;16.58;;
68284;SDS011;55114;52.052;5.238;2022-10-31T08:17:17;42.28;;;15.55;;
68284;SDS011;55114;52.052;5.238;2022-10-31T08:19:44;57.77;;;15.13;;
68284;SDS011;55114;52.052;5.238;2022-10-31T08:22:11;53.10;;;17.60;;
68284;SDS011;55114;52.052;5.238;2022-10-31T08:24:38;53.17;;;16.55;;
68284;SDS011;55114;52.052;5.238;2022-10-31T08:27:05;42.97;;;16.00;;
68284;SDS011;55114;52.052;5.238;2022-10-31T08:29:32;44.13;;;16.15;;
68284;SDS011;55114;52.052;5.238;2022-10-31T08:31:59;48.30;;;16.80;;
68284;SDS011;55114;52.052;5.238;2022-10-31T08:34:27;39.58;;;16.52;;
68284;SDS011;55114;52.052;5.238;2022-10-31T08:36:54;38.80;;;15.60;;
68284;SDS011;55114;52.052;5.238;2022-10-31T08:39:21;41.40;;;17.08;;
68284;SDS011;55114;52.052;5.238;2022-10-31T08:41:48;46.80;;;17.55;;
68284;SDS011;55114;52.052;5.238;2022-10-31T08:44:15;49.33;;;18.53;;
68284;SDS011;55114;52.052;5.238;2022-10-31T08:46:42;40.28;;;17.27;;
68284;SDS011;55114;52.052;5.238;2022-10-31T08:49:09;44.13;;;18.60;;
68284;SDS011;55114;52.052;5.238;2022-10-31T08:51:36;47.03;;;18.60;;
68284;SDS011;55114;52.052;5.238;2022-10-31T08:54:03;42.47;;;18.15;;
68284;SDS011;55114;52.052;5.238;2022-10-31T08:56:30;44.00;;;17.57;;
68284;SDS011;55114;52.052;5.238;2022-10-31T08:58:57;39.13;;;18.40;;
68284;SDS011;55114;52.052;5.238;2022-10-31T09:01:25;43.17;;;18.65;;
68284;SDS011;55114;52.052;5.238;2022-10-31T09:03:52;45.25;;;19.27;;
68284;SDS011;55114;52.052;5.238;2022-10-31T09:06:19;44.17;;;19.50;;
68284;SDS011;55114;52.052;5.238;2022-10-31T09:08:46;42.90;;;19.73;;
68284;SDS011;55114;52.052;5.238;2022-10-31T09:11:13;47.05;;;20.40;;
68284;SDS011;55114;52.052;5.238;2022-10-31T09:13:40;41.92;;;19.95;;
68284;SDS011;55114;52.052;5.238;2022-10-31T09:16:07;42.22;;;19.92;;
68284;SDS011;55114;52.052;5.238;2022-10-31T09:18:34;44.30;;;20.35;;
68284;SDS011;55114;52.052;5.238;2022-10-31T09:21:02;48.93;;;20.70;;
68284;SDS011;55114;52.052;5.238;2022-10-31T09:23:29;44.95;;;21.27;;
68284;SDS011;55114;52.052;5.238;2022-10-31T09:25:58;48.17;;;22.55;;
68284;SDS011;55114;52.052;5.238;2022-10-31T09:28:26;55.38;;;23.67;;
68284;SDS011;55114;52.052;5.238;2022-10-31T09:30:53;55.50;;;24.65;;
68284;SDS011;55114;52.052;5.238;2022-10-31T09:33:20;53.83;;;24.30;;
68284;SDS011;55114;52.052;5.238;2022-10-31T09:35:48;52.70;;;25.48;;
68284;SDS011;55114;52.052;5.238;2022-10-31T09:38:16;55.10;;;26.25;;
68284;SDS011;55114;52.052;5.238;2022-10-31T09:40:55;50.10;;;25.83;;
68284;SDS011;55114;52.052;5.238;2022-10-31T09:49:03;50.15;;;24.48;;
68284;SDS011;55114;52.052;5.238;2022-10-31T09:56:25;39.72;;;20.60;;
68284;SDS011;55114;52.052;5.238;2022-10-31T09:59:00;43.53;;;20.87;;
68284;SDS011;55114;52.052;5.238;2022-10-31T10:04:03;39.28;;;20.95;;
68284;SDS011;55114;52.052;5.238;2022-10-31T10:06:32;41.03;;;20.13;;
68284;SDS011;55114;52.052;5.238;2022-10-31T10:09:01;36.83;;;20.75;;
68284;SDS011;55114;52.052;5.238;2022-10-31T10:11:34;37.60;;;20.07;;
68284;SDS011;55114;52.052;5.238;2022-10-31T10:14:05;35.65;;;18.17;;
68284;SDS011;55114;52.052;5.238;2022-10-31T10:16:39;31.40;;;18.45;;
68284;SDS011;55114;52.052;5.238;2022-10-31T10:19:12;36.08;;;18.52;;
68284;SDS011;55114;52.052;5.238;2022-10-31T10:21:53;38.20;;;19.13;;
68284;SDS011;55114;52.052;5.238;2022-10-31T10:24:30;30.07;;;17.83;;
68284;SDS011;55114;52.052;5.238;2022-10-31T10:27:03;34.03;;;18.38;;
68284;SDS011;55114;52.052;5.238;2022-10-31T10:32:06;33.45;;;18.33;;
68284;SDS011;55114;52.052;5.238;2022-10-31T10:34:38;30.83;;;17.73;;
68284;SDS011;55114;52.052;5.238;2022-10-31T10:37:49;33.30;;;18.63;;
68284;SDS011;55114;52.052;5.238;2022-10-31T10:40:13;29.27;;;17.88;;
68284;SDS011;55114;52.052;5.238;2022-10-31T10:42:50;27.80;;;16.45;;
68284;SDS011;55114;52.052;5.238;2022-10-31T10:45:41;30.80;;;17.02;;
68284;SDS011;55114;52.052;5.238;2022-10-31T10:48:44;28.65;;;17.23;;
68284;SDS011;55114;52.052;5.238;2022-10-31T10:51:20;29.83;;;15.70;;
68284;SDS011;55114;52.052;5.238;2022-10-31T10:54:11;30.45;;;16.45;;
68284;SDS011;55114;52.052;5.238;2022-10-31T10:59:26;28.52;;;15.35;;
68284;SDS011;55114;52.052;5.238;2022-10-31T11:01:55;29.75;;;16.75;;
68284;SDS011;55114;52.052;5.238;2022-10-31T11:06:57;30.77;;;15.88;;
68284;SDS011;55114;52.052;5.238;2022-10-31T11:09:24;28.20;;;15.45;;
68284;SDS011;55114;52.052;5.238;2022-10-31T11:11:51;31.13;;;15.88;;
68284;SDS011;55114;52.052;5.238;2022-10-31T11:14:18;28.85;;;15.05;;
68284;SDS011;55114;52.052;5.238;2022-10-31T11:16:48;28.97;;;14.37;;
68284;SDS011;55114;52.052;5.238;2022-10-31T11:19:21;28.85;;;14.80;;
68284;SDS011;55114;52.052;5.238;2022-10-31T11:21:49;28.75;;;14.63;;
68284;SDS011;55114;52.052;5.238;2022-10-31T11:24:20;28.60;;;14.70;;
68284;SDS011;55114;52.052;5.238;2022-10-31T11:26:48;28.65;;;15.50;;
68284;SDS011;55114;52.052;5.238;2022-10-31T11:29:23;31.50;;;15.37;;
68284;SDS011;55114;52.052;5.238;2022-10-31T11:31:53;32.83;;;15.70;;
68284;SDS011;55114;52.052;5.238;2022-10-31T11:34:41;30.70;;;14.43;;
68284;SDS011;55114;52.052;5.238;2022-10-31T11:37:21;29.15;;;14.50;;
68284;SDS011;55114;52.052;5.238;2022-10-31T11:39:49;32.75;;;14.40;;
68284;SDS011;55114;52.052;5.238;2022-10-31T11:42:23;28.00;;;14.00;;
68284;SDS011;55114;52.052;5.238;2022-10-31T11:44:51;27.77;;;13.73;;
68284;SDS011;55114;52.052;5.238;2022-10-31T11:47:28;28.30;;;13.10;;
68284;SDS011;55114;52.052;5.238;2022-10-31T11:49:56;29.73;;;12.88;;
68284;SDS011;55114;52.052;5.238;2022-10-31T11:52:25;31.25;;;13.52;;
68284;SDS011;55114;52.052;5.238;2022-10-31T11:55:01;28.40;;;13.60;;
68284;SDS011;55114;52.052;5.238;2022-10-31T11:57:33;28.23;;;12.27;;
68284;SDS011;55114;52.052;5.238;2022-10-31T12:00:00;33.35;;;13.27;;
68284;SDS011;55114;52.052;5.238;2022-10-31T12:02:29;27.50;;;12.93;;
68284;SDS011;55114;52.052;5.238;2022-10-31T12:05:02;30.30;;;14.23;;
68284;SDS011;55114;52.052;5.238;2022-10-31T12:07:30;30.83;;;13.90;;
68284;SDS011;55114;52.052;5.238;2022-10-31T12:09:58;30.92;;;13.90;;
68284;SDS011;55114;52.052;5.238;2022-10-31T12:23:06;30.83;;;13.23;;
68284;SDS011;55114;52.052;5.238;2022-10-31T12:49:41;32.67;;;14.18;;
68284;SDS011;55114;52.052;5.238;2022-10-31T12:54:40;30.08;;;14.80;;
68284;SDS011;55114;52.052;5.238;2022-10-31T12:59:42;34.50;;;14.60;;
68284;SDS011;55114;52.052;5.238;2022-10-31T13:02:18;35.38;;;15.00;;
68284;SDS011;55114;52.052;5.238;2022-10-31T13:07:36;31.17;;;14.82;;
68284;SDS011;55114;52.052;5.238;2022-10-31T13:12:32;32.97;;;15.07;;
68284;SDS011;55114;52.052;5.238;2022-10-31T13:15:12;35.08;;;15.60;;
68284;SDS011;55114;52.052;5.238;2022-10-31T13:17:45;36.00;;;15.85;;
68284;SDS011;55114;52.052;5.238;2022-10-31T13:22:42;36.88;;;14.93;;
68284;SDS011;55114;52.052;5.238;2022-10-31T13:25:15;38.40;;;15.07;;
68284;SDS011;55114;52.052;5.238;2022-10-31T13:28:02;33.55;;;15.05;;
68284;SDS011;55114;52.052;5.238;2022-10-31T13:30:36;35.78;;;15.00;;
68284;SDS011;55114;52.052;5.238;2022-10-31T13:33:14;38.83;;;15.23;;
68284;SDS011;55114;52.052;5.238;2022-10-31T13:38:16;32.70;;;14.50;;
68284;SDS011;55114;52.052;5.238;2022-10-31T13:40:54;37.50;;;15.73;;
68284;SDS011;55114;52.052;5.238;2022-10-31T13:43:31;35.42;;;15.68;;
68284;SDS011;55114;52.052;5.238;2022-10-31T13:45:58;35.15;;;14.63;;
68284;SDS011;55114;52.052;5.238;2022-10-31T13:48:38;31.92;;;14.55;;
68284;SDS011;55114;52.052;5.238;2022-10-31T13:51:08;32.90;;;15.03;;
68284;SDS011;55114;52.052;5.238;2022-10-31T13:53:36;35.03;;;14.98;;
68284;SDS011;55114;52.052;5.238;2022-10-31T13:56:14;35.13;;;15.65;;
68284;SDS011;55114;52.052;5.238;2022-10-31T13:59:05;31.42;;;14.52;;
68284;SDS011;55114;52.052;5.238;2022-10-31T14:01:29;39.28;;;17.55;;
68284;SDS011;55114;52.052;5.238;2022-10-31T14:06:51;34.10;;;15.02;;
68284;SDS011;55114;52.052;5.238;2022-10-31T14:10:03;33.80;;;15.70;;
68284;SDS011;55114;52.052;5.238;2022-10-31T14:12:12;32.63;;;14.45;;
68284;SDS011;55114;52.052;5.238;2022-10-31T14:14:49;32.55;;;14.93;;
68284;SDS011;55114;52.052;5.238;2022-10-31T14:17:22;31.80;;;14.80;;
68284;SDS011;55114;52.052;5.238;2022-10-31T14:19:58;29.17;;;14.88;;
68284;SDS011;55114;52.052;5.238;2022-10-31T14:22:29;30.13;;;14.00;;
68284;SDS011;55114;52.052;5.238;2022-10-31T14:24:57;29.67;;;14.15;;
68284;SDS011;55114;52.052;5.238;2022-10-31T14:29:52;32.80;;;14.17;;
68284;SDS011;55114;52.052;5.238;2022-10-31T14:32:20;33.45;;;14.70;;
68284;SDS011;55114;52.052;5.238;2022-10-31T14:37:32;30.83;;;15.38;;
68284;SDS011;55114;52.052;5.238;2022-10-31T14:40:06;33.47;;;14.65;;
68284;SDS011;55114;52.052;5.238;2022-10-31T14:50:18;33.25;;;14.15;;
68284;SDS011;55114;52.052;5.238;2022-10-31T14:52:48;37.67;;;15.32;;
68284;SDS011;55114;52.052;5.238;2022-10-31T14:55:16;30.77;;;13.50;;
68284;SDS011;55114;52.052;5.238;2022-10-31T14:57:47;34.05;;;14.68;;
68284;SDS011;55114;52.052;5.238;2022-10-31T15:00:17;33.25;;;15.43;;
68284;SDS011;55114;52.052;5.238;2022-10-31T15:02:50;34.05;;;14.63;;
68284;SDS011;55114;52.052;5.238;2022-10-31T15:05:18;31.25;;;15.07;;
68284;SDS011;55114;52.052;5.238;2022-10-31T15:07:53;33.80;;;14.60;;
68284;SDS011;55114;52.052;5.238;2022-10-31T15:10:26;32.72;;;13.95;;
68284;SDS011;55114;52.052;5.238;2022-10-31T15:12:55;34.10;;;14.20;;
68284;SDS011;55114;52.052;5.238;2022-10-31T15:15:24;34.03;;;14.95;;
68284;SDS011;55114;52.052;5.238;2022-10-31T15:17:56;29.83;;;13.65;;
68284;SDS011;55114;52.052;5.238;2022-10-31T15:20:25;27.93;;;13.83;;
68284;SDS011;55114;52.052;5.238;2022-10-31T15:22:53;33.50;;;13.95;;
68284;SDS011;55114;52.052;5.238;2022-10-31T15:25:22;29.27;;;13.18;;
68284;SDS011;55114;52.052;5.238;2022-10-31T15:27:50;30.40;;;12.68;;
68284;SDS011;55114;52.052;5.238;2022-10-31T15:30:22;28.38;;;13.00;;
68284;SDS011;55114;52.052;5.238;2022-10-31T15:32:49;30.27;;;13.10;;
68284;SDS011;55114;52.052;5.238;2022-10-31T15:35:25;32.95;;;13.25;;
68284;SDS011;55114;52.052;5.238;2022-10-31T15:37:52;29.92;;;13.65;;
68284;SDS011;55114;52.052;5.238;2022-10-31T15:40:20;31.10;;;13.50;;
68284;SDS011;55114;52.052;5.238;2022-10-31T15:42:51;27.65;;;13.70;;
68284;SDS011;55114;52.052;5.238;2022-10-31T15:45:24;30.07;;;12.73;;
68284;SDS011;55114;52.052;5.238;2022-10-31T15:47:56;32.40;;;13.02;;
68284;SDS011;55114;52.052;5.238;2022-10-31T15:50:30;29.50;;;12.32;;
68284;SDS011;55114;52.052;5.238;2022-10-31T15:52:58;26.55;;;12.20;;
68284;SDS011;55114;52.052;5.238;2022-10-31T15:55:27;32.35;;;14.00;;
68284;SDS011;55114;52.052;5.238;2022-10-31T15:57:56;30.20;;;12.33;;
68284;SDS011;55114;52.052;5.238;2022-10-31T16:00:32;30.42;;;12.52;;
68284;SDS011;55114;52.052;5.238;2022-10-31T16:05:51;25.48;;;11.55;;
68284;SDS011;55114;52.052;5.238;2022-10-31T16:10:50;27.50;;;12.43;;
68284;SDS011;55114;52.052;5.238;2022-10-31T16:13:17;32.28;;;13.00;;
68284;SDS011;55114;52.052;5.238;2022-10-31T16:15:48;31.23;;;12.43;;
68284;SDS011;55114;52.052;5.238;2022-10-31T16:18:34;28.00;;;12.60;;
68284;SDS011;55114;52.052;5.238;2022-10-31T16:21:03;32.17;;;12.50;;
68284;SDS011;55114;52.052;5.238;2022-10-31T16:23:30;32.83;;;13.10;;
68284;SDS011;55114;52.052;5.238;2022-10-31T16:25:57;23.88;;;12.05;;
68284;SDS011;55114;52.052;5.238;2022-10-31T16:28:26;27.80;;;12.48;;
68284;SDS011;55114;52.052;5.238;2022-10-31T16:30:59;27.40;;;12.80;;
68284;SDS011;55114;52.052;5.238;2022-10-31T16:33:36;30.23;;;12.65;;
68284;SDS011;55114;52.052;5.238;2022-10-31T16:39:00;32.13;;;12.55;;